createdAt,value
2023-03-11T00:01:31.240Z,72.32
2023-03-11T00:04:03.556Z,72.38
2023-03-11T00:06:37.868Z,72.42
2023-03-11T00:09:10.482Z,72.61
2023-03-11T00:11:42.953Z,72.59
2023-03-11T00:14:15.438Z,72.54
2023-03-11T00:16:47.876Z,72.67
2023-03-11T00:19:20.428Z,72.64
2023-03-11T00:21:52.812Z,72.69
2023-03-11T00:24:25.101Z,72.70
2023-03-11T00:26:57.499Z,72.67
2023-03-11T00:29:30.173Z,72.69
2023-03-11T00:32:02.665Z,72.74
2023-03-11T00:34:35.303Z,73.18
2023-03-11T00:37:07.677Z,73.17
2023-03-11T00:39:40.028Z,73.07
2023-03-11T00:42:12.468Z,73.04
2023-03-11T00:44:44.897Z,73.13
2023-03-11T00:47:17.289Z,73.27
2023-03-11T00:49:50.257Z,73.29
2023-03-11T00:52:22.520Z,73.30
2023-03-11T00:54:55.040Z,73.47
2023-03-11T00:57:29.377Z,73.49
2023-03-11T01:00:01.955Z,73.46
2023-03-11T01:02:36.118Z,73.34
2023-03-11T01:05:09.578Z,73.45
2023-03-11T01:07:42.007Z,73.52
2023-03-11T01:10:15.928Z,73.24
2023-03-11T01:12:48.228Z,73.35
2023-03-11T01:15:23.387Z,73.47
2023-03-11T01:17:55.672Z,73.66
2023-03-11T01:20:28.200Z,73.54
2023-03-11T01:23:00.703Z,73.65
2023-03-11T01:25:33.926Z,73.74
2023-03-11T01:28:08.411Z,73.63
2023-03-11T01:30:43.167Z,73.68
2023-03-11T01:33:20.346Z,73.79
2023-03-11T01:35:52.778Z,73.86
2023-03-11T01:38:25.245Z,73.88
2023-03-11T01:40:57.636Z,73.71
2023-03-11T01:43:50.557Z,73.90
2023-03-11T01:46:29.278Z,73.86
2023-03-11T01:49:03.994Z,74.04
2023-03-11T01:51:42.572Z,74.02
2023-03-11T01:54:21.030Z,74.11
2023-03-11T01:56:54.456Z,74.20
2023-03-11T01:59:30.207Z,74.20
2023-03-11T02:02:09.713Z,74.50
2023-03-11T02:04:43.654Z,74.24
2023-03-11T02:07:17.120Z,74.48
2023-03-11T02:09:49.985Z,74.30
2023-03-11T02:12:23.104Z,74.72
2023-03-11T02:14:55.789Z,74.85
2023-03-11T02:17:28.296Z,74.68
2023-03-11T02:20:13.797Z,74.94
2023-03-11T02:22:47.292Z,74.95
2023-03-11T02:25:27.732Z,74.72
2023-03-11T02:28:02.314Z,74.50
2023-03-11T02:30:36.968Z,74.45
2023-03-11T02:33:10.134Z,74.25
2023-03-11T02:35:42.750Z,74.10
2023-03-11T02:38:15.391Z,74.04
2023-03-11T02:40:54.011Z,74.09
2023-03-11T02:43:33.598Z,73.86
2023-03-11T02:46:10.155Z,73.88
2023-03-11T02:48:44.439Z,73.89
2023-03-11T02:51:17.397Z,73.90
2023-03-11T02:53:52.834Z,73.77
2023-03-11T02:56:25.852Z,73.69
2023-03-11T02:58:58.356Z,73.94
2023-03-11T03:01:31.171Z,73.92
2023-03-11T03:04:04.261Z,73.72
2023-03-11T03:06:37.820Z,73.50
2023-03-11T03:09:10.162Z,73.76
2023-03-11T03:11:42.512Z,73.60
2023-03-11T03:14:15.120Z,73.36
2023-03-11T03:16:47.705Z,73.77
2023-03-11T03:19:20.300Z,73.70
2023-03-11T03:21:52.648Z,73.58
2023-03-11T03:24:26.868Z,73.56
2023-03-11T03:26:59.242Z,73.71
2023-03-11T03:29:32.109Z,73.65
2023-03-11T03:32:05.090Z,73.55
2023-03-11T03:34:38.441Z,73.56
2023-03-11T03:37:10.759Z,73.56
2023-03-11T03:39:43.284Z,73.53
2023-03-11T03:42:16.606Z,73.69
2023-03-11T03:44:49.721Z,73.52
2023-03-11T03:47:22.352Z,73.34
2023-03-11T03:49:54.877Z,73.59
2023-03-11T03:52:27.252Z,73.58
2023-03-11T03:54:59.712Z,73.52
2023-03-11T03:57:32.975Z,73.26
2023-03-11T04:00:10.216Z,73.43
2023-03-11T04:02:50.415Z,73.57
2023-03-11T04:05:30.470Z,73.52
2023-03-11T04:08:02.796Z,73.41
2023-03-11T04:10:35.117Z,73.51
2023-03-11T04:13:08.163Z,73.43
2023-03-11T04:15:41.758Z,73.43
2023-03-11T04:18:14.167Z,73.42
2023-03-11T04:20:46.656Z,73.31
2023-03-11T04:23:20.518Z,73.36
2023-03-11T04:25:52.782Z,73.40
2023-03-11T04:28:25.336Z,73.29
2023-03-11T04:30:58.237Z,73.24
2023-03-11T04:33:30.849Z,73.45
2023-03-11T04:36:08.974Z,73.37
2023-03-11T04:38:42.234Z,73.66
2023-03-11T04:41:15.439Z,73.24
2023-03-11T04:43:48.091Z,73.48
2023-03-11T04:46:20.563Z,73.38
2023-03-11T04:48:53.783Z,73.58
2023-03-11T04:51:26.488Z,73.53
2023-03-11T04:53:58.938Z,73.45
2023-03-11T04:56:32.677Z,73.27
2023-03-11T04:59:05.226Z,73.36
2023-03-11T05:01:38.247Z,73.54
2023-03-11T05:04:12.916Z,73.42
2023-03-11T05:06:45.900Z,73.51
2023-03-11T05:09:18.502Z,73.49
2023-03-11T05:11:50.907Z,73.31
2023-03-11T05:14:23.789Z,73.16
2023-03-11T05:16:56.926Z,73.50
2023-03-11T05:19:32.344Z,73.22
2023-03-11T05:22:07.404Z,73.33
2023-03-11T05:24:40.038Z,73.30
2023-03-11T05:27:12.852Z,73.38
2023-03-11T05:29:45.990Z,73.43
2023-03-11T05:32:19.384Z,73.56
2023-03-11T05:34:53.428Z,73.33
2023-03-11T05:37:26.290Z,73.50
2023-03-11T05:40:00.475Z,73.38
2023-03-11T05:42:32.903Z,73.18
2023-03-11T05:45:05.549Z,73.30
2023-03-11T05:47:38.492Z,73.63
2023-03-11T05:50:15.499Z,73.52
2023-03-11T05:52:48.766Z,73.22
2023-03-11T05:55:21.668Z,73.36
2023-03-11T05:57:55.279Z,73.30
2023-03-11T06:00:29.597Z,73.40
2023-03-11T06:03:04.016Z,73.40
2023-03-11T06:05:36.412Z,73.29
2023-03-11T06:08:08.840Z,73.23
2023-03-11T06:10:41.176Z,73.32
2023-03-11T06:13:13.572Z,73.67
2023-03-11T06:15:53.419Z,73.37
2023-03-11T06:18:27.067Z,73.49
2023-03-11T06:21:01.660Z,73.49
2023-03-11T06:23:34.048Z,73.28
2023-03-11T06:26:08.052Z,73.42
2023-03-11T06:28:45.024Z,73.41
2023-03-11T06:31:20.723Z,73.28
2023-03-11T06:33:53.310Z,73.23
2023-03-11T06:36:26.335Z,73.04
2023-03-11T06:38:58.864Z,73.35
2023-03-11T06:41:34.053Z,73.13
2023-03-11T06:44:07.022Z,73.20
2023-03-11T06:46:41.168Z,73.05
2023-03-11T06:49:13.505Z,73.05
2023-03-11T06:51:46.238Z,73.04
2023-03-11T06:54:19.190Z,73.07
2023-03-11T06:56:51.589Z,73.03
2023-03-11T06:59:24.319Z,73.30
2023-03-11T07:01:57.862Z,73.19
2023-03-11T07:04:30.404Z,73.41
2023-03-11T07:07:02.854Z,73.08
2023-03-11T07:09:35.318Z,73.21
2023-03-11T07:12:11.144Z,72.83
2023-03-11T07:14:44.091Z,72.89
2023-03-11T07:17:16.396Z,73.04
2023-03-11T07:19:52.623Z,72.90
2023-03-11T07:22:24.945Z,73.06
2023-03-11T07:24:57.198Z,72.71
2023-03-11T07:27:30.686Z,73.08
2023-03-11T07:30:03.734Z,72.96
2023-03-11T07:32:36.043Z,72.52
2023-03-11T07:35:10.801Z,72.89
2023-03-11T07:37:43.180Z,73.03
2023-03-11T07:40:17.278Z,72.85
2023-03-11T07:42:49.633Z,72.90
2023-03-11T07:45:24.167Z,72.88
2023-03-11T07:47:56.486Z,73.07
2023-03-11T07:50:28.904Z,72.64
2023-03-11T07:53:01.248Z,73.00
2023-03-11T07:55:34.540Z,72.75
2023-03-11T07:58:07.180Z,72.82
2023-03-11T08:00:39.441Z,72.90
2023-03-11T08:03:11.826Z,72.91
2023-03-11T08:05:44.252Z,72.96
2023-03-11T08:08:16.607Z,72.88
2023-03-11T08:10:49.039Z,73.01
2023-03-11T08:13:21.382Z,73.16
2023-03-11T08:15:53.684Z,73.02
2023-03-11T08:18:26.120Z,72.98
2023-03-11T08:20:58.533Z,72.87
2023-03-11T08:23:31.092Z,72.80
2023-03-11T08:26:06.216Z,72.91
2023-03-11T08:28:38.976Z,72.83
2023-03-11T08:31:16.850Z,72.86
2023-03-11T08:33:51.082Z,73.06
2023-03-11T08:36:23.781Z,72.84
2023-03-11T08:38:56.107Z,72.95
2023-03-11T08:41:29.326Z,72.68
2023-03-11T08:44:01.938Z,72.89
2023-03-11T08:46:36.974Z,72.64
2023-03-11T08:49:10.006Z,72.79
2023-03-11T08:51:42.739Z,72.75
2023-03-11T08:54:14.987Z,72.78
2023-03-11T08:56:48.094Z,72.89
2023-03-11T08:59:20.362Z,72.75
2023-03-11T09:01:52.714Z,72.68
2023-03-11T09:04:25.041Z,72.80
2023-03-11T09:06:57.239Z,72.38
2023-03-11T09:09:29.522Z,72.62
2023-03-11T09:12:01.772Z,72.27
2023-03-11T09:14:34.067Z,72.54
2023-03-11T09:17:06.420Z,72.62
2023-03-11T09:19:39.257Z,72.85
2023-03-11T09:22:11.623Z,72.43
2023-03-11T09:24:43.886Z,72.46
2023-03-11T09:27:16.362Z,72.22
2023-03-11T09:29:48.684Z,72.36
2023-03-11T09:32:21.377Z,72.48
2023-03-11T09:34:53.869Z,72.40
2023-03-11T09:37:27.083Z,72.40
2023-03-11T09:39:59.424Z,72.31
2023-03-11T09:42:38.989Z,72.59
2023-03-11T09:45:19.477Z,72.10
2023-03-11T09:48:06.043Z,72.17
2023-03-11T09:50:44.060Z,72.30
2023-03-11T09:53:24.001Z,72.30
2023-03-11T09:55:58.640Z,72.27
2023-03-11T09:58:39.995Z,72.25
2023-03-11T10:01:19.285Z,72.04
2023-03-11T10:03:54.623Z,72.56
2023-03-11T10:06:30.607Z,72.29
2023-03-11T10:09:08.672Z,72.11
2023-03-11T10:11:57.501Z,72.24
2023-03-11T10:14:51.679Z,72.12
2023-03-11T10:17:44.107Z,72.12
2023-03-11T10:20:26.189Z,72.35
2023-03-11T10:23:10.344Z,72.30
2023-03-11T10:25:53.730Z,72.15
2023-03-11T10:28:33.725Z,72.27
2023-03-11T10:31:19.086Z,72.45
2023-03-11T10:33:51.681Z,72.12
2023-03-11T10:36:28.464Z,72.01
2023-03-11T10:39:02.095Z,72.07
2023-03-11T10:41:42.892Z,72.08
2023-03-11T10:44:20.498Z,72.00
2023-03-11T10:46:52.759Z,72.14
2023-03-11T10:49:25.054Z,72.04
2023-03-11T10:51:58.512Z,72.20
2023-03-11T10:54:33.726Z,71.89
2023-03-11T10:57:05.350Z,71.76
2023-03-11T10:59:49.805Z,71.69
2023-03-11T11:02:27.185Z,71.64
2023-03-11T11:05:28.323Z,71.68
2023-03-11T11:08:09.710Z,72.06
2023-03-11T11:10:52.741Z,72.10
2023-03-11T11:13:26.916Z,71.83
2023-03-11T11:16:01.699Z,71.93
2023-03-11T11:18:38.032Z,71.38
2023-03-11T11:21:15.122Z,71.70
2023-03-11T11:23:53.024Z,71.84
2023-03-11T11:26:27.517Z,71.58
2023-03-11T11:29:15.190Z,71.63
2023-03-11T11:31:48.559Z,71.42
2023-03-11T11:34:32.101Z,71.71
2023-03-11T11:37:07.065Z,71.73
2023-03-11T11:39:52.105Z,71.85
2023-03-11T11:42:27.684Z,71.63
2023-03-11T11:45:04.579Z,71.70
2023-03-11T11:47:43.294Z,71.83
2023-03-11T11:50:24.909Z,71.71
2023-03-11T11:53:05.932Z,71.46
2023-03-11T11:55:41.229Z,71.52
2023-03-11T11:58:13.463Z,71.56
2023-03-11T12:00:56.240Z,71.88
2023-03-11T12:03:54.937Z,71.48
2023-03-11T12:06:37.097Z,71.69
2023-03-11T12:09:24.345Z,71.38
2023-03-11T12:12:06.353Z,71.59
2023-03-11T12:14:46.649Z,71.44
2023-03-11T12:17:23.625Z,71.60
2023-03-11T12:20:01.309Z,71.65
2023-03-11T12:23:02.690Z,71.44
2023-03-11T12:25:41.566Z,71.50
2023-03-11T12:28:24.965Z,71.49
2023-03-11T12:31:00.723Z,71.59
2023-03-11T12:33:38.228Z,71.55
2023-03-11T12:36:25.712Z,71.22
2023-03-11T12:38:58.495Z,71.27
2023-03-11T12:41:37.038Z,71.39
2023-03-11T12:44:28.888Z,71.36
2023-03-11T12:47:18.490Z,71.24
2023-03-11T12:49:54.973Z,71.41
2023-03-11T12:52:34.428Z,71.45
2023-03-11T12:55:35.240Z,71.37
2023-03-11T12:58:34.252Z,71.40
2023-03-11T13:01:37.098Z,71.61
2023-03-11T13:04:27.019Z,71.33
2023-03-11T13:07:47.680Z,71.14
2023-03-11T13:10:37.455Z,71.30
2023-03-11T13:13:42.720Z,71.19
2023-03-11T13:16:39.785Z,71.11
2023-03-11T13:19:37.050Z,70.92
2023-03-11T13:23:04.863Z,71.06
2023-03-11T13:25:42.056Z,71.11
2023-03-11T13:28:38.910Z,70.91
2023-03-11T13:31:23.889Z,70.97
2023-03-11T13:33:59.160Z,70.70
2023-03-11T13:36:45.891Z,70.78
2023-03-11T13:39:45.589Z,70.73
2023-03-11T13:42:23.623Z,70.55
2023-03-11T13:44:56.306Z,70.89
2023-03-11T13:47:30.187Z,70.88
2023-03-11T13:50:10.296Z,70.67
2023-03-11T13:52:49.126Z,70.65
2023-03-11T13:55:25.156Z,70.64
2023-03-11T13:57:58.662Z,70.43
2023-03-11T14:00:34.075Z,70.52
2023-03-11T14:03:12.910Z,70.81
2023-03-11T14:05:49.386Z,70.58
2023-03-11T14:08:27.041Z,70.72
2023-03-11T14:11:00.448Z,70.70
2023-03-11T14:13:33.870Z,70.83
2023-03-11T14:16:09.993Z,70.92
2023-03-11T14:18:43.643Z,70.71
2023-03-11T14:21:18.281Z,70.67
2023-03-11T14:23:53.389Z,70.75
2023-03-11T14:26:29.212Z,70.51
2023-03-11T14:29:03.828Z,70.72
2023-03-11T14:31:38.111Z,70.56
2023-03-11T14:34:18.370Z,70.63
2023-03-11T14:36:54.419Z,70.57
2023-03-11T14:39:32.492Z,70.54
2023-03-11T14:42:18.912Z,70.43
2023-03-11T14:44:58.031Z,70.43
2023-03-11T14:47:37.807Z,70.42
2023-03-11T14:50:17.572Z,70.44
2023-03-11T14:52:52.967Z,70.28
2023-03-11T14:55:28.364Z,70.44
2023-03-11T14:58:04.776Z,70.18
2023-03-11T15:00:41.693Z,70.06
2023-03-11T15:03:23.666Z,70.22
2023-03-11T15:05:59.197Z,70.17
2023-03-11T15:08:35.979Z,70.26
2023-03-11T15:11:24.469Z,69.95
2023-03-11T15:14:17.419Z,70.13
2023-03-11T15:16:49.972Z,70.46
2023-03-11T15:19:32.251Z,70.32
2023-03-11T15:22:22.625Z,70.27
2023-03-11T15:24:57.189Z,70.34
2023-03-11T15:27:35.486Z,70.05
2023-03-11T15:30:23.297Z,69.88
2023-03-11T15:32:56.364Z,69.86
2023-03-11T15:35:29.939Z,70.00
2023-03-11T15:38:25.659Z,70.10
2023-03-11T15:41:01.446Z,69.60
2023-03-11T15:43:35.955Z,69.75
2023-03-11T15:46:11.801Z,69.56
2023-03-11T15:48:44.990Z,70.01
2023-03-11T15:51:22.229Z,69.46
2023-03-11T15:53:54.588Z,69.77
2023-03-11T15:56:27.350Z,69.50
2023-03-11T15:58:59.798Z,69.79
2023-03-11T16:01:32.570Z,69.68
2023-03-11T16:04:04.889Z,69.61
2023-03-11T16:06:37.452Z,69.49
2023-03-11T16:09:09.980Z,69.61
2023-03-11T16:11:44.015Z,69.39
2023-03-11T16:14:20.078Z,69.46
2023-03-11T16:16:52.426Z,69.76
2023-03-11T16:19:24.961Z,69.60
2023-03-11T16:21:57.278Z,69.42
2023-03-11T16:24:29.843Z,69.49
2023-03-11T16:27:02.353Z,69.63
2023-03-11T16:29:34.870Z,69.63
2023-03-11T16:32:08.734Z,69.41
2023-03-11T16:34:41.202Z,69.30
2023-03-11T16:37:20.715Z,69.45
2023-03-11T16:39:53.834Z,69.47
2023-03-11T16:42:26.399Z,69.42
2023-03-11T16:44:58.767Z,69.39
2023-03-11T16:47:31.146Z,69.11
2023-03-11T16:50:04.210Z,69.11
2023-03-11T16:52:36.848Z,69.23
2023-03-11T16:55:12.325Z,69.29
2023-03-11T16:57:45.183Z,69.08
2023-03-11T17:00:19.102Z,68.96
2023-03-11T17:02:51.484Z,69.34
2023-03-11T17:05:23.807Z,69.03
2023-03-11T17:08:01.146Z,68.98
2023-03-11T17:10:39.358Z,69.11
2023-03-11T17:13:12.865Z,68.92
2023-03-11T17:15:45.899Z,69.08
2023-03-11T17:18:18.215Z,69.09
2023-03-11T17:20:50.586Z,68.85
2023-03-11T17:23:23.408Z,68.95
2023-03-11T17:25:55.838Z,69.00
2023-03-11T17:28:28.646Z,68.95
2023-03-11T17:31:01.176Z,69.01
2023-03-11T17:33:33.459Z,68.82
2023-03-11T17:36:09.747Z,69.03
2023-03-11T17:38:42.293Z,68.91
2023-03-11T17:41:17.000Z,69.06
2023-03-11T17:43:51.547Z,68.87
2023-03-11T17:46:24.273Z,69.08
2023-03-11T17:48:56.710Z,68.94
2023-03-11T17:51:29.177Z,68.89
2023-03-11T17:54:01.892Z,68.87
2023-03-11T17:56:34.275Z,68.96
2023-03-11T17:59:06.624Z,68.90
2023-03-11T18:01:39.337Z,68.68
2023-03-11T18:04:11.706Z,68.98
2023-03-11T18:06:44.436Z,68.94
2023-03-11T18:09:17.228Z,68.91
2023-03-11T18:11:49.581Z,68.86
2023-03-11T18:14:21.817Z,68.95
2023-03-11T18:16:54.201Z,68.72
2023-03-11T18:19:26.586Z,68.94
2023-03-11T18:21:59.013Z,69.03
2023-03-11T18:24:31.379Z,68.81
2023-03-11T18:27:03.698Z,68.88
2023-03-11T18:29:36.081Z,68.88
2023-03-11T18:32:08.929Z,68.97
2023-03-11T18:34:41.778Z,68.79
2023-03-11T18:37:14.089Z,68.61
2023-03-11T18:39:46.955Z,68.64
2023-03-11T18:42:19.238Z,68.84
2023-03-11T18:44:51.671Z,68.58
2023-03-11T18:47:24.084Z,68.41
2023-03-11T18:49:57.134Z,68.59
2023-03-11T18:52:29.523Z,68.64
2023-03-11T18:55:01.913Z,68.60
2023-03-11T18:57:34.245Z,68.49
2023-03-11T19:00:07.900Z,68.48
2023-03-11T19:02:40.189Z,68.59
2023-03-11T19:05:12.731Z,68.61
2023-03-11T19:07:45.054Z,68.54
2023-03-11T19:10:20.103Z,68.72
2023-03-11T19:12:52.529Z,68.58
2023-03-11T19:15:24.948Z,68.44
2023-03-11T19:18:06.219Z,68.45
2023-03-11T19:20:39.771Z,68.63
2023-03-11T19:23:12.410Z,68.35
2023-03-11T19:26:00.692Z,68.45
2023-03-11T19:28:35.120Z,68.30
2023-03-11T19:31:07.895Z,68.46
2023-03-11T19:33:40.430Z,68.78
2023-03-11T19:36:14.086Z,68.39
2023-03-11T19:38:46.381Z,68.46
2023-03-11T19:41:20.584Z,68.27
2023-03-11T19:43:53.153Z,68.64
2023-03-11T19:46:25.581Z,68.49
2023-03-11T19:48:58.971Z,68.35
2023-03-11T19:51:46.430Z,68.29
2023-03-11T19:54:21.773Z,68.23
2023-03-11T19:56:54.148Z,68.28
2023-03-11T19:59:26.474Z,68.51
2023-03-11T20:01:58.925Z,68.19
2023-03-11T20:04:31.456Z,68.08
2023-03-11T20:07:03.997Z,68.26
2023-03-11T20:09:36.628Z,68.30
2023-03-11T20:12:09.740Z,68.35
2023-03-11T20:14:43.337Z,68.35
2023-03-11T20:17:16.014Z,68.20
2023-03-11T20:19:48.265Z,68.41
2023-03-11T20:22:20.840Z,67.79
2023-03-11T20:24:53.536Z,68.25
2023-03-11T20:27:25.871Z,68.13
2023-03-11T20:29:58.293Z,68.14
2023-03-11T20:32:31.139Z,68.16
2023-03-11T20:35:04.272Z,67.99
2023-03-11T20:37:36.673Z,68.08
2023-03-11T20:40:13.169Z,68.12
2023-03-11T20:42:47.260Z,68.14
2023-03-11T20:45:22.059Z,68.10
2023-03-11T20:47:55.855Z,67.91
2023-03-11T20:50:28.253Z,67.93
2023-03-11T20:53:00.666Z,67.84
2023-03-11T20:55:33.249Z,67.93
2023-03-11T20:58:06.190Z,68.08
2023-03-11T21:00:38.839Z,68.00
2023-03-11T21:03:11.418Z,68.16
2023-03-11T21:05:45.689Z,67.92
2023-03-11T21:08:18.350Z,67.90
2023-03-11T21:10:50.931Z,67.86
2023-03-11T21:13:23.745Z,68.10
2023-03-11T21:15:57.674Z,68.00
2023-03-11T21:18:30.277Z,68.08
2023-03-11T21:21:04.016Z,68.01
2023-03-11T21:23:36.984Z,67.86
2023-03-11T21:26:09.978Z,67.86
2023-03-11T21:28:46.777Z,68.01
2023-03-11T21:31:21.342Z,67.97
2023-03-11T21:33:55.465Z,68.00
2023-03-11T21:36:28.325Z,68.03
2023-03-11T21:39:03.409Z,67.84
2023-03-11T21:41:36.355Z,67.99
2023-03-11T21:44:09.001Z,67.90
2023-03-11T21:46:41.570Z,67.92
2023-03-11T21:49:14.103Z,67.80
2023-03-11T21:51:46.448Z,67.90
2023-03-11T21:54:18.913Z,67.98
2023-03-11T21:56:51.457Z,68.09
2023-03-11T21:59:25.584Z,67.85
2023-03-11T22:02:01.432Z,67.83
2023-03-11T22:04:34.279Z,67.87
2023-03-11T22:07:06.859Z,68.02
2023-03-11T22:09:39.259Z,67.88
2023-03-11T22:12:11.706Z,67.83
2023-03-11T22:14:44.038Z,67.80
2023-03-11T22:17:16.608Z,67.72
2023-03-11T22:19:49.414Z,67.86
2023-03-11T22:22:21.876Z,67.83
2023-03-11T22:24:54.089Z,67.66
2023-03-11T22:27:26.423Z,67.75
2023-03-11T22:29:58.688Z,67.72
2023-03-11T22:32:31.000Z,67.88
2023-03-11T22:35:03.533Z,67.69
2023-03-11T22:37:35.876Z,67.61
2023-03-11T22:40:11.358Z,67.73
2023-03-11T22:42:43.734Z,67.62
2023-03-11T22:45:16.144Z,67.66
2023-03-11T22:47:48.446Z,67.51
2023-03-11T22:50:21.899Z,67.62
2023-03-11T22:52:54.275Z,67.68
2023-03-11T22:55:26.884Z,67.73
2023-03-11T22:57:59.267Z,67.63
2023-03-11T23:00:31.667Z,67.82
2023-03-11T23:03:04.410Z,67.75
2023-03-11T23:05:42.064Z,67.74
2023-03-11T23:08:16.668Z,67.74
2023-03-11T23:10:49.669Z,67.68
2023-03-11T23:13:22.177Z,67.69
2023-03-11T23:15:54.508Z,67.63
2023-03-11T23:18:27.481Z,67.50
2023-03-11T23:21:00.007Z,67.71
2023-03-11T23:23:32.535Z,67.57
2023-03-11T23:26:10.273Z,67.73
2023-03-11T23:28:44.384Z,67.46
2023-03-11T23:31:18.972Z,67.62
2023-03-11T23:33:51.501Z,67.58
2023-03-11T23:36:27.636Z,67.72
2023-03-11T23:39:00.353Z,67.45
2023-03-11T23:41:32.711Z,67.41
2023-03-11T23:44:05.416Z,67.60
2023-03-11T23:46:37.804Z,67.73
2023-03-11T23:49:10.167Z,67.57
2023-03-11T23:51:42.616Z,67.67
2023-03-11T23:54:14.893Z,67.74
2023-03-11T23:56:47.415Z,67.68
2023-03-11T23:59:19.732Z,67.54
